sensor_id;sensor_type;location;lat;lon;timestamp;temperature;humidity
39849;DHT22;25518;47.878;15.914;2023-06-10T00:01:16;12.80;99.90
39849;DHT22;25518;47.878;15.914;2023-06-10T00:04:06;12.70;99.90
39849;DHT22;25518;47.878;15.914;2023-06-10T00:06:55;12.70;99.90
39849;DHT22;25518;47.878;15.914;2023-06-10T00:09:46;12.50;99.90
39849;DHT22;25518;47.878;15.914;2023-06-10T00:12:36;12.70;99.90
39849;DHT22;25518;47.878;15.914;2023-06-10T00:15:27;12.60;99.90
39849;DHT22;25518;47.878;15.914;2023-06-10T00:18:17;12.50;99.90
39849;DHT22;25518;47.878;15.914;2023-06-10T00:21:06;12.20;99.90
39849;DHT22;25518;47.878;15.914;2023-06-10T00:23:56;12.50;99.90
39849;DHT22;25518;47.878;15.914;2023-06-10T00:26:45;12.50;99.90
39849;DHT22;25518;47.878;15.914;2023-06-10T00:29:35;12.40;99.90
39849;DHT22;25518;47.878;15.914;2023-06-10T00:32:25;12.50;99.90
39849;DHT22;25518;47.878;15.914;2023-06-10T00:35:15;12.60;99.90
39849;DHT22;25518;47.878;15.914;2023-06-10T00:38:04;12.40;99.90
39849;DHT22;25518;47.878;15.914;2023-06-10T00:40:54;12.30;99.90
39849;DHT22;25518;47.878;15.914;2023-06-10T00:43:44;12.40;99.90
39849;DHT22;25518;47.878;15.914;2023-06-10T00:46:34;12.40;99.90
39849;DHT22;25518;47.878;15.914;2023-06-10T00:49:24;12.40;99.90
39849;DHT22;25518;47.878;15.914;2023-06-10T00:52:15;12.40;99.90
39849;DHT22;25518;47.878;15.914;2023-06-10T00:55:06;12.50;99.90
39849;DHT22;25518;47.878;15.914;2023-06-10T00:57:57;12.50;99.90
39849;DHT22;25518;47.878;15.914;2023-06-10T01:00:47;12.50;99.90
39849;DHT22;25518;47.878;15.914;2023-06-10T01:03:37;12.70;99.90
39849;DHT22;25518;47.878;15.914;2023-06-10T01:12:56;12.70;99.90
39849;DHT22;25518;47.878;15.914;2023-06-10T01:15:48;12.60;99.90
39849;DHT22;25518;47.878;15.914;2023-06-10T01:18:40;12.70;99.90
39849;DHT22;25518;47.878;15.914;2023-06-10T01:21:31;12.80;99.90
39849;DHT22;25518;47.878;15.914;2023-06-10T01:24:21;12.60;99.90
39849;DHT22;25518;47.878;15.914;2023-06-10T01:27:13;12.60;99.90
39849;DHT22;25518;47.878;15.914;2023-06-10T01:30:09;12.50;99.90
39849;DHT22;25518;47.878;15.914;2023-06-10T01:33:02;12.60;99.90
39849;DHT22;25518;47.878;15.914;2023-06-10T01:35:53;12.70;99.90
39849;DHT22;25518;47.878;15.914;2023-06-10T01:38:44;12.50;99.90
39849;DHT22;25518;47.878;15.914;2023-06-10T01:41:35;12.60;99.90
39849;DHT22;25518;47.878;15.914;2023-06-10T01:44:26;12.70;99.90
39849;DHT22;25518;47.878;15.914;2023-06-10T01:47:16;12.70;99.90
39849;DHT22;25518;47.878;15.914;2023-06-10T01:50:06;12.70;99.90
39849;DHT22;25518;47.878;15.914;2023-06-10T01:52:58;12.70;99.90
39849;DHT22;25518;47.878;15.914;2023-06-10T01:55:47;12.80;99.90
39849;DHT22;25518;47.878;15.914;2023-06-10T01:58:37;12.70;99.90
39849;DHT22;25518;47.878;15.914;2023-06-10T02:01:27;12.70;99.90
39849;DHT22;25518;47.878;15.914;2023-06-10T02:04:17;12.80;99.90
39849;DHT22;25518;47.878;15.914;2023-06-10T02:07:06;12.80;99.90
39849;DHT22;25518;47.878;15.914;2023-06-10T02:09:56;12.90;99.90
39849;DHT22;25518;47.878;15.914;2023-06-10T02:12:46;12.70;99.90
39849;DHT22;25518;47.878;15.914;2023-06-10T02:15:36;12.80;99.90
39849;DHT22;25518;47.878;15.914;2023-06-10T02:18:25;9.50;99.90
39849;DHT22;25518;47.878;15.914;2023-06-10T02:21:16;12.90;99.90
39849;DHT22;25518;47.878;15.914;2023-06-10T02:24:06;13.00;99.90
39849;DHT22;25518;47.878;15.914;2023-06-10T02:26:56;12.80;99.90
39849;DHT22;25518;47.878;15.914;2023-06-10T02:29:45;12.80;99.90
39849;DHT22;25518;47.878;15.914;2023-06-10T02:32:35;12.90;99.90
39849;DHT22;25518;47.878;15.914;2023-06-10T02:35:25;12.90;99.90
39849;DHT22;25518;47.878;15.914;2023-06-10T02:38:14;12.90;99.90
39849;DHT22;25518;47.878;15.914;2023-06-10T02:41:04;13.00;99.90
39849;DHT22;25518;47.878;15.914;2023-06-10T02:43:53;13.10;99.90
39849;DHT22;25518;47.878;15.914;2023-06-10T02:46:43;13.20;99.90
39849;DHT22;25518;47.878;15.914;2023-06-10T02:49:33;13.20;99.90
39849;DHT22;25518;47.878;15.914;2023-06-10T02:52:23;13.10;99.90
39849;DHT22;25518;47.878;15.914;2023-06-10T02:55:13;12.90;99.90
39849;DHT22;25518;47.878;15.914;2023-06-10T02:58:02;12.90;99.90
39849;DHT22;25518;47.878;15.914;2023-06-10T03:00:52;12.90;99.90
39849;DHT22;25518;47.878;15.914;2023-06-10T03:20:36;13.10;99.90
39849;DHT22;25518;47.878;15.914;2023-06-10T03:23:26;12.60;99.90
39849;DHT22;25518;47.878;15.914;2023-06-10T03:26:16;13.00;99.90
39849;DHT22;25518;47.878;15.914;2023-06-10T03:29:06;13.10;99.90
39849;DHT22;25518;47.878;15.914;2023-06-10T03:31:55;13.20;99.90
39849;DHT22;25518;47.878;15.914;2023-06-10T03:34:46;13.20;99.90
39849;DHT22;25518;47.878;15.914;2023-06-10T03:37:37;13.20;99.90
39849;DHT22;25518;47.878;15.914;2023-06-10T03:40:26;13.10;99.90
39849;DHT22;25518;47.878;15.914;2023-06-10T03:43:16;13.20;99.90
39849;DHT22;25518;47.878;15.914;2023-06-10T03:46:05;13.10;99.90
39849;DHT22;25518;47.878;15.914;2023-06-10T03:48:55;13.30;99.90
39849;DHT22;25518;47.878;15.914;2023-06-10T03:51:45;13.30;99.90
39849;DHT22;25518;47.878;15.914;2023-06-10T03:54:35;13.30;99.90
39849;DHT22;25518;47.878;15.914;2023-06-10T03:57:25;13.20;99.90
39849;DHT22;25518;47.878;15.914;2023-06-10T04:00:16;13.20;99.90
39849;DHT22;25518;47.878;15.914;2023-06-10T04:03:07;13.10;99.90
39849;DHT22;25518;47.878;15.914;2023-06-10T04:05:58;13.20;99.90
39849;DHT22;25518;47.878;15.914;2023-06-10T04:08:48;13.10;99.90
39849;DHT22;25518;47.878;15.914;2023-06-10T04:11:37;13.10;99.90
39849;DHT22;25518;47.878;15.914;2023-06-10T04:14:27;11.40;99.90
39849;DHT22;25518;47.878;15.914;2023-06-10T04:17:17;13.20;99.90
39849;DHT22;25518;47.878;15.914;2023-06-10T04:20:07;13.30;99.90
39849;DHT22;25518;47.878;15.914;2023-06-10T04:22:57;13.60;99.90
39849;DHT22;25518;47.878;15.914;2023-06-10T04:25:46;13.50;99.90
39849;DHT22;25518;47.878;15.914;2023-06-10T04:28:36;12.80;99.90
39849;DHT22;25518;47.878;15.914;2023-06-10T04:31:26;13.70;99.90
39849;DHT22;25518;47.878;15.914;2023-06-10T04:34:17;13.80;99.90
39849;DHT22;25518;47.878;15.914;2023-06-10T04:37:06;13.90;99.90
39849;DHT22;25518;47.878;15.914;2023-06-10T04:39:56;13.90;99.90
39849;DHT22;25518;47.878;15.914;2023-06-10T04:42:46;14.00;99.90
39849;DHT22;25518;47.878;15.914;2023-06-10T04:45:35;13.80;99.90
39849;DHT22;25518;47.878;15.914;2023-06-10T04:48:25;13.90;99.90
39849;DHT22;25518;47.878;15.914;2023-06-10T04:51:15;14.00;99.90
39849;DHT22;25518;47.878;15.914;2023-06-10T04:54:06;13.90;99.90
39849;DHT22;25518;47.878;15.914;2023-06-10T04:56:55;13.90;99.90
39849;DHT22;25518;47.878;15.914;2023-06-10T04:59:45;13.80;99.90
39849;DHT22;25518;47.878;15.914;2023-06-10T05:02:35;13.80;99.90
39849;DHT22;25518;47.878;15.914;2023-06-10T05:05:24;13.90;99.90
39849;DHT22;25518;47.878;15.914;2023-06-10T05:08:14;13.90;99.90
39849;DHT22;25518;47.878;15.914;2023-06-10T05:11:04;13.90;99.90
39849;DHT22;25518;47.878;15.914;2023-06-10T05:13:53;14.00;99.90
39849;DHT22;25518;47.878;15.914;2023-06-10T05:16:43;14.00;99.90
39849;DHT22;25518;47.878;15.914;2023-06-10T05:19:33;14.00;99.90
39849;DHT22;25518;47.878;15.914;2023-06-10T05:22:25;13.20;99.90
39849;DHT22;25518;47.878;15.914;2023-06-10T05:25:14;14.30;99.90
39849;DHT22;25518;47.878;15.914;2023-06-10T05:28:04;14.40;99.90
39849;DHT22;25518;47.878;15.914;2023-06-10T05:30:53;14.40;99.90
39849;DHT22;25518;47.878;15.914;2023-06-10T05:33:43;14.40;99.90
39849;DHT22;25518;47.878;15.914;2023-06-10T05:36:32;14.50;99.90
39849;DHT22;25518;47.878;15.914;2023-06-10T05:39:22;14.70;99.90
39849;DHT22;25518;47.878;15.914;2023-06-10T05:42:12;14.90;99.90
39849;DHT22;25518;47.878;15.914;2023-06-10T05:45:02;15.00;99.90
39849;DHT22;25518;47.878;15.914;2023-06-10T05:47:52;14.90;99.90
39849;DHT22;25518;47.878;15.914;2023-06-10T05:50:42;15.10;99.90
39849;DHT22;25518;47.878;15.914;2023-06-10T05:53:33;15.10;99.90
39849;DHT22;25518;47.878;15.914;2023-06-10T05:56:24;15.10;99.90
39849;DHT22;25518;47.878;15.914;2023-06-10T05:59:15;15.00;99.90
39849;DHT22;25518;47.878;15.914;2023-06-10T06:02:05;15.20;99.90
39849;DHT22;25518;47.878;15.914;2023-06-10T06:04:55;15.20;99.90
39849;DHT22;25518;47.878;15.914;2023-06-10T06:07:45;13.40;99.90
39849;DHT22;25518;47.878;15.914;2023-06-10T06:10:35;15.50;99.90
39849;DHT22;25518;47.878;15.914;2023-06-10T06:13:24;15.60;99.90
39849;DHT22;25518;47.878;15.914;2023-06-10T06:16:14;15.70;99.90
39849;DHT22;25518;47.878;15.914;2023-06-10T06:19:04;14.50;99.90
39849;DHT22;25518;47.878;15.914;2023-06-10T06:21:54;15.90;99.90
39849;DHT22;25518;47.878;15.914;2023-06-10T06:24:43;16.00;99.90
39849;DHT22;25518;47.878;15.914;2023-06-10T06:27:33;16.10;99.90
39849;DHT22;25518;47.878;15.914;2023-06-10T06:30:23;16.10;99.90
39849;DHT22;25518;47.878;15.914;2023-06-10T06:33:13;16.10;99.90
39849;DHT22;25518;47.878;15.914;2023-06-10T06:36:03;16.20;99.90
39849;DHT22;25518;47.878;15.914;2023-06-10T06:38:53;16.40;99.90
39849;DHT22;25518;47.878;15.914;2023-06-10T06:41:42;16.40;99.90
39849;DHT22;25518;47.878;15.914;2023-06-10T06:44:32;16.40;99.90
39849;DHT22;25518;47.878;15.914;2023-06-10T06:47:21;16.60;99.90
39849;DHT22;25518;47.878;15.914;2023-06-10T06:50:11;16.80;99.90
39849;DHT22;25518;47.878;15.914;2023-06-10T06:53:01;17.10;99.90
39849;DHT22;25518;47.878;15.914;2023-06-10T06:55:51;17.20;99.90
39849;DHT22;25518;47.878;15.914;2023-06-10T06:58:41;17.10;99.90
39849;DHT22;25518;47.878;15.914;2023-06-10T07:01:33;17.20;99.90
39849;DHT22;25518;47.878;15.914;2023-06-10T07:04:23;17.40;99.90
39849;DHT22;25518;47.878;15.914;2023-06-10T07:07:14;17.40;99.90
39849;DHT22;25518;47.878;15.914;2023-06-10T07:10:04;17.10;99.90
39849;DHT22;25518;47.878;15.914;2023-06-10T07:12:53;17.10;99.90
39849;DHT22;25518;47.878;15.914;2023-06-10T07:15:43;17.20;99.90
39849;DHT22;25518;47.878;15.914;2023-06-10T07:18:33;17.40;99.90
39849;DHT22;25518;47.878;15.914;2023-06-10T07:21:23;17.60;99.90
39849;DHT22;25518;47.878;15.914;2023-06-10T07:24:13;18.00;99.90
39849;DHT22;25518;47.878;15.914;2023-06-10T07:27:03;18.10;99.90
39849;DHT22;25518;47.878;15.914;2023-06-10T07:29:52;18.30;99.90
39849;DHT22;25518;47.878;15.914;2023-06-10T07:32:42;18.20;99.90
39849;DHT22;25518;47.878;15.914;2023-06-10T07:35:33;18.20;99.90
39849;DHT22;25518;47.878;15.914;2023-06-10T07:38:22;17.30;99.90
39849;DHT22;25518;47.878;15.914;2023-06-10T07:41:12;18.20;99.90
39849;DHT22;25518;47.878;15.914;2023-06-10T07:44:02;18.40;99.90
39849;DHT22;25518;47.878;15.914;2023-06-10T07:46:51;17.10;99.90
39849;DHT22;25518;47.878;15.914;2023-06-10T07:49:41;18.80;99.90
39849;DHT22;25518;47.878;15.914;2023-06-10T07:52:30;18.70;99.90
39849;DHT22;25518;47.878;15.914;2023-06-10T07:55:20;18.40;99.90
39849;DHT22;25518;47.878;15.914;2023-06-10T07:58:10;18.10;99.90
39849;DHT22;25518;47.878;15.914;2023-06-10T08:01:00;18.10;99.90
39849;DHT22;25518;47.878;15.914;2023-06-10T08:03:50;17.90;99.90
39849;DHT22;25518;47.878;15.914;2023-06-10T08:06:40;18.00;99.90
39849;DHT22;25518;47.878;15.914;2023-06-10T08:09:29;18.00;99.90
39849;DHT22;25518;47.878;15.914;2023-06-10T08:12:19;18.30;99.90
39849;DHT22;25518;47.878;15.914;2023-06-10T08:15:09;18.40;99.90
39849;DHT22;25518;47.878;15.914;2023-06-10T08:17:59;18.40;99.90
39849;DHT22;25518;47.878;15.914;2023-06-10T08:20:49;18.30;99.90
39849;DHT22;25518;47.878;15.914;2023-06-10T08:23:38;18.40;99.90
39849;DHT22;25518;47.878;15.914;2023-06-10T08:26:28;18.30;99.90
39849;DHT22;25518;47.878;15.914;2023-06-10T08:29:18;18.40;99.90
39849;DHT22;25518;47.878;15.914;2023-06-10T08:32:07;18.40;99.90
39849;DHT22;25518;47.878;15.914;2023-06-10T08:34:57;18.40;99.90
39849;DHT22;25518;47.878;15.914;2023-06-10T08:37:47;18.60;99.90
39849;DHT22;25518;47.878;15.914;2023-06-10T08:40:37;18.70;99.90
39849;DHT22;25518;47.878;15.914;2023-06-10T08:46:17;19.30;99.90
39849;DHT22;25518;47.878;15.914;2023-06-10T08:49:07;19.50;99.90
39849;DHT22;25518;47.878;15.914;2023-06-10T08:51:59;19.50;99.90
39849;DHT22;25518;47.878;15.914;2023-06-10T08:55:12;19.20;99.90
39849;DHT22;25518;47.878;15.914;2023-06-10T08:58:03;19.00;99.90
39849;DHT22;25518;47.878;15.914;2023-06-10T09:00:54;18.70;99.90
39849;DHT22;25518;47.878;15.914;2023-06-10T09:03:44;18.60;99.90
39849;DHT22;25518;47.878;15.914;2023-06-10T09:06:34;17.60;99.90
39849;DHT22;25518;47.878;15.914;2023-06-10T09:09:28;18.60;99.90
39849;DHT22;25518;47.878;15.914;2023-06-10T09:12:20;18.90;99.90
39849;DHT22;25518;47.878;15.914;2023-06-10T09:15:09;18.90;99.90
39849;DHT22;25518;47.878;15.914;2023-06-10T09:18:01;19.00;99.90
39849;DHT22;25518;47.878;15.914;2023-06-10T09:20:51;19.10;99.90
39849;DHT22;25518;47.878;15.914;2023-06-10T09:23:41;19.50;99.90
39849;DHT22;25518;47.878;15.914;2023-06-10T09:26:32;19.60;99.90
39849;DHT22;25518;47.878;15.914;2023-06-10T09:29:21;19.30;99.90
39849;DHT22;25518;47.878;15.914;2023-06-10T09:32:11;19.60;99.90
39849;DHT22;25518;47.878;15.914;2023-06-10T09:35:09;19.80;99.90
39849;DHT22;25518;47.878;15.914;2023-06-10T09:38:00;19.70;99.90
39849;DHT22;25518;47.878;15.914;2023-06-10T09:40:51;19.70;99.90
39849;DHT22;25518;47.878;15.914;2023-06-10T09:43:43;19.60;99.90
39849;DHT22;25518;47.878;15.914;2023-06-10T09:46:34;19.60;99.90
39849;DHT22;25518;47.878;15.914;2023-06-10T09:49:29;19.80;99.90
39849;DHT22;25518;47.878;15.914;2023-06-10T09:52:24;19.80;99.90
39849;DHT22;25518;47.878;15.914;2023-06-10T09:55:14;19.50;99.90
39849;DHT22;25518;47.878;15.914;2023-06-10T09:58:04;19.40;99.90
39849;DHT22;25518;47.878;15.914;2023-06-10T10:00:54;19.40;99.90
39849;DHT22;25518;47.878;15.914;2023-06-10T10:03:46;19.30;99.90
39849;DHT22;25518;47.878;15.914;2023-06-10T10:06:36;19.30;99.90
39849;DHT22;25518;47.878;15.914;2023-06-10T10:09:27;19.30;99.90
39849;DHT22;25518;47.878;15.914;2023-06-10T10:12:17;19.20;99.90
39849;DHT22;25518;47.878;15.914;2023-06-10T10:15:08;19.30;99.90
39849;DHT22;25518;47.878;15.914;2023-06-10T10:18:06;19.00;99.90
39849;DHT22;25518;47.878;15.914;2023-06-10T10:21:01;18.90;99.90
39849;DHT22;25518;47.878;15.914;2023-06-10T10:27:15;18.40;99.90
39849;DHT22;25518;47.878;15.914;2023-06-10T10:30:07;18.20;99.90
39849;DHT22;25518;47.878;15.914;2023-06-10T10:33:00;18.30;99.90
39849;DHT22;25518;47.878;15.914;2023-06-10T10:35:55;18.20;99.90
39849;DHT22;25518;47.878;15.914;2023-06-10T10:38:46;18.10;99.90
39849;DHT22;25518;47.878;15.914;2023-06-10T10:41:38;17.90;99.90
39849;DHT22;25518;47.878;15.914;2023-06-10T10:44:29;17.90;99.90
39849;DHT22;25518;47.878;15.914;2023-06-10T10:47:21;18.10;99.90
39849;DHT22;25518;47.878;15.914;2023-06-10T10:50:15;18.30;99.90
39849;DHT22;25518;47.878;15.914;2023-06-10T10:53:06;18.50;99.90
39849;DHT22;25518;47.878;15.914;2023-06-10T10:56:05;18.30;99.90
39849;DHT22;25518;47.878;15.914;2023-06-10T10:59:04;18.60;99.90
39849;DHT22;25518;47.878;15.914;2023-06-10T11:01:56;18.90;99.90
39849;DHT22;25518;47.878;15.914;2023-06-10T11:04:48;19.20;99.90
39849;DHT22;25518;47.878;15.914;2023-06-10T11:07:38;19.60;99.90
39849;DHT22;25518;47.878;15.914;2023-06-10T11:10:37;19.90;99.90
39849;DHT22;25518;47.878;15.914;2023-06-10T11:13:27;20.40;99.90
39849;DHT22;25518;47.878;15.914;2023-06-10T11:16:20;20.70;99.90
39849;DHT22;25518;47.878;15.914;2023-06-10T11:19:09;20.10;99.90
39849;DHT22;25518;47.878;15.914;2023-06-10T11:22:00;20.00;99.90
39849;DHT22;25518;47.878;15.914;2023-06-10T11:24:51;19.90;99.90
39849;DHT22;25518;47.878;15.914;2023-06-10T11:27:40;19.80;99.90
39849;DHT22;25518;47.878;15.914;2023-06-10T11:30:35;19.50;99.90
39849;DHT22;25518;47.878;15.914;2023-06-10T11:33:25;19.20;99.90
39849;DHT22;25518;47.878;15.914;2023-06-10T11:36:15;18.90;99.90
39849;DHT22;25518;47.878;15.914;2023-06-10T11:39:05;18.80;99.90
39849;DHT22;25518;47.878;15.914;2023-06-10T11:41:55;19.00;99.90
39849;DHT22;25518;47.878;15.914;2023-06-10T11:44:53;19.20;99.90
39849;DHT22;25518;47.878;15.914;2023-06-10T11:47:57;19.80;99.90
39849;DHT22;25518;47.878;15.914;2023-06-10T11:50:46;20.40;99.90
39849;DHT22;25518;47.878;15.914;2023-06-10T11:53:36;21.00;99.90
39849;DHT22;25518;47.878;15.914;2023-06-10T11:56:27;21.00;99.90
39849;DHT22;25518;47.878;15.914;2023-06-10T11:59:17;21.30;99.90
39849;DHT22;25518;47.878;15.914;2023-06-10T12:02:15;21.60;99.90
39849;DHT22;25518;47.878;15.914;2023-06-10T12:05:14;21.60;99.90
39849;DHT22;25518;47.878;15.914;2023-06-10T12:08:09;21.20;99.90
39849;DHT22;25518;47.878;15.914;2023-06-10T12:10:59;20.80;99.90
39849;DHT22;25518;47.878;15.914;2023-06-10T12:13:49;20.80;99.90
39849;DHT22;25518;47.878;15.914;2023-06-10T12:16:40;20.90;99.90
39849;DHT22;25518;47.878;15.914;2023-06-10T12:19:29;21.00;99.90
39849;DHT22;25518;47.878;15.914;2023-06-10T12:22:18;20.90;99.90
39849;DHT22;25518;47.878;15.914;2023-06-10T12:25:10;21.10;99.90
39849;DHT22;25518;47.878;15.914;2023-06-10T12:28:00;21.30;99.90
39849;DHT22;25518;47.878;15.914;2023-06-10T12:30:50;21.60;99.90
39849;DHT22;25518;47.878;15.914;2023-06-10T12:33:40;21.80;99.90
39849;DHT22;25518;47.878;15.914;2023-06-10T12:36:31;21.60;99.90
39849;DHT22;25518;47.878;15.914;2023-06-10T12:39:22;21.40;99.90
39849;DHT22;25518;47.878;15.914;2023-06-10T12:42:12;21.20;99.90
39849;DHT22;25518;47.878;15.914;2023-06-10T12:45:03;21.10;99.90
39849;DHT22;25518;47.878;15.914;2023-06-10T12:47:52;21.30;99.90
39849;DHT22;25518;47.878;15.914;2023-06-10T12:50:43;21.20;99.90
39849;DHT22;25518;47.878;15.914;2023-06-10T12:53:32;21.20;99.90
39849;DHT22;25518;47.878;15.914;2023-06-10T12:56:22;21.00;99.90
39849;DHT22;25518;47.878;15.914;2023-06-10T12:59:12;20.90;99.90
39849;DHT22;25518;47.878;15.914;2023-06-10T13:02:04;20.70;99.90
39849;DHT22;25518;47.878;15.914;2023-06-10T13:04:54;19.70;99.90
39849;DHT22;25518;47.878;15.914;2023-06-10T13:07:44;19.90;99.90
39849;DHT22;25518;47.878;15.914;2023-06-10T13:10:34;19.80;99.90
39849;DHT22;25518;47.878;15.914;2023-06-10T13:13:24;19.50;99.90
39849;DHT22;25518;47.878;15.914;2023-06-10T13:16:15;18.80;99.90
39849;DHT22;25518;47.878;15.914;2023-06-10T13:19:06;18.40;99.90
39849;DHT22;25518;47.878;15.914;2023-06-10T13:21:55;18.20;99.90
39849;DHT22;25518;47.878;15.914;2023-06-10T13:24:45;15.10;99.90
39849;DHT22;25518;47.878;15.914;2023-06-10T13:27:36;17.90;99.90
39849;DHT22;25518;47.878;15.914;2023-06-10T13:30:30;18.00;99.90
39849;DHT22;25518;47.878;15.914;2023-06-10T13:33:20;18.00;99.90
39849;DHT22;25518;47.878;15.914;2023-06-10T13:36:11;18.00;99.90
39849;DHT22;25518;47.878;15.914;2023-06-10T13:39:02;18.30;99.90
39849;DHT22;25518;47.878;15.914;2023-06-10T13:41:51;18.60;99.90
39849;DHT22;25518;47.878;15.914;2023-06-10T13:44:41;18.50;99.90
39849;DHT22;25518;47.878;15.914;2023-06-10T13:47:31;18.40;99.90
39849;DHT22;25518;47.878;15.914;2023-06-10T13:50:21;18.40;99.90
39849;DHT22;25518;47.878;15.914;2023-06-10T13:53:10;18.50;99.90
39849;DHT22;25518;47.878;15.914;2023-06-10T13:55:59;18.70;99.90
39849;DHT22;25518;47.878;15.914;2023-06-10T13:58:49;18.80;99.90
39849;DHT22;25518;47.878;15.914;2023-06-10T14:01:39;19.00;99.90
39849;DHT22;25518;47.878;15.914;2023-06-10T14:04:30;19.40;99.90
39849;DHT22;25518;47.878;15.914;2023-06-10T14:07:19;19.80;99.90
39849;DHT22;25518;47.878;15.914;2023-06-10T14:10:09;20.10;99.90
39849;DHT22;25518;47.878;15.914;2023-06-10T14:12:59;20.10;99.90
39849;DHT22;25518;47.878;15.914;2023-06-10T14:15:49;20.50;99.90
39849;DHT22;25518;47.878;15.914;2023-06-10T14:18:39;21.00;99.90
39849;DHT22;25518;47.878;15.914;2023-06-10T14:21:29;21.20;99.90
39849;DHT22;25518;47.878;15.914;2023-06-10T14:24:18;21.20;99.90
39849;DHT22;25518;47.878;15.914;2023-06-10T14:27:08;21.30;99.90
39849;DHT22;25518;47.878;15.914;2023-06-10T14:29:57;21.20;99.90
39849;DHT22;25518;47.878;15.914;2023-06-10T14:32:47;21.10;99.90
39849;DHT22;25518;47.878;15.914;2023-06-10T14:35:37;21.30;99.90
39849;DHT22;25518;47.878;15.914;2023-06-10T14:38:26;21.20;99.90
39849;DHT22;25518;47.878;15.914;2023-06-10T14:41:16;21.20;99.90
39849;DHT22;25518;47.878;15.914;2023-06-10T14:44:06;21.30;99.90
39849;DHT22;25518;47.878;15.914;2023-06-10T14:46:55;21.10;99.90
39849;DHT22;25518;47.878;15.914;2023-06-10T14:49:45;21.00;99.90
39849;DHT22;25518;47.878;15.914;2023-06-10T14:52:34;21.00;99.90
39849;DHT22;25518;47.878;15.914;2023-06-10T14:55:24;20.90;99.90
39849;DHT22;25518;47.878;15.914;2023-06-10T14:58:13;20.90;99.90
39849;DHT22;25518;47.878;15.914;2023-06-10T15:01:03;20.40;99.90
39849;DHT22;25518;47.878;15.914;2023-06-10T15:03:53;20.30;99.90
39849;DHT22;25518;47.878;15.914;2023-06-10T15:06:43;20.10;99.90
39849;DHT22;25518;47.878;15.914;2023-06-10T15:09:32;20.10;99.90
39849;DHT22;25518;47.878;15.914;2023-06-10T15:12:22;19.90;99.90
39849;DHT22;25518;47.878;15.914;2023-06-10T15:15:12;19.80;99.90
39849;DHT22;25518;47.878;15.914;2023-06-10T15:18:02;19.90;99.90
39849;DHT22;25518;47.878;15.914;2023-06-10T15:20:52;20.10;99.90
39849;DHT22;25518;47.878;15.914;2023-06-10T15:23:41;19.90;99.90
39849;DHT22;25518;47.878;15.914;2023-06-10T15:26:31;20.00;99.90
39849;DHT22;25518;47.878;15.914;2023-06-10T15:29:21;20.10;99.90
39849;DHT22;25518;47.878;15.914;2023-06-10T15:32:10;20.20;99.90
39849;DHT22;25518;47.878;15.914;2023-06-10T15:35:00;20.20;99.90
39849;DHT22;25518;47.878;15.914;2023-06-10T15:37:49;20.60;99.90
39849;DHT22;25518;47.878;15.914;2023-06-10T15:40:41;21.00;99.90
39849;DHT22;25518;47.878;15.914;2023-06-10T15:43:31;21.00;99.90
39849;DHT22;25518;47.878;15.914;2023-06-10T15:46:21;20.80;99.90
39849;DHT22;25518;47.878;15.914;2023-06-10T15:49:10;20.60;99.90
39849;DHT22;25518;47.878;15.914;2023-06-10T15:52:00;20.50;99.90
39849;DHT22;25518;47.878;15.914;2023-06-10T15:54:49;20.40;99.90
39849;DHT22;25518;47.878;15.914;2023-06-10T15:57:39;20.20;99.90
39849;DHT22;25518;47.878;15.914;2023-06-10T16:00:28;17.30;99.90
39849;DHT22;25518;47.878;15.914;2023-06-10T16:03:18;20.00;99.90
39849;DHT22;25518;47.878;15.914;2023-06-10T16:06:07;19.90;99.90
39849;DHT22;25518;47.878;15.914;2023-06-10T16:08:59;19.90;99.90
39849;DHT22;25518;47.878;15.914;2023-06-10T16:11:50;19.90;99.90
39849;DHT22;25518;47.878;15.914;2023-06-10T16:14:39;19.60;99.90
39849;DHT22;25518;47.878;15.914;2023-06-10T16:17:29;19.60;99.90
39849;DHT22;25518;47.878;15.914;2023-06-10T16:20:19;19.60;99.90
39849;DHT22;25518;47.878;15.914;2023-06-10T16:23:09;19.60;99.90
39849;DHT22;25518;47.878;15.914;2023-06-10T16:25:59;19.60;99.90
39849;DHT22;25518;47.878;15.914;2023-06-10T16:28:49;19.60;99.90
39849;DHT22;25518;47.878;15.914;2023-06-10T16:31:38;19.50;99.90
39849;DHT22;25518;47.878;15.914;2023-06-10T16:34:28;19.30;99.90
39849;DHT22;25518;47.878;15.914;2023-06-10T16:37:18;19.30;99.90
39849;DHT22;25518;47.878;15.914;2023-06-10T16:40:07;19.30;99.90
39849;DHT22;25518;47.878;15.914;2023-06-10T16:42:57;19.30;99.90
39849;DHT22;25518;47.878;15.914;2023-06-10T16:45:46;19.40;99.90
39849;DHT22;25518;47.878;15.914;2023-06-10T16:48:36;19.40;99.90
39849;DHT22;25518;47.878;15.914;2023-06-10T16:51:26;19.60;99.90
39849;DHT22;25518;47.878;15.914;2023-06-10T16:54:16;20.00;99.90
39849;DHT22;25518;47.878;15.914;2023-06-10T16:57:05;20.30;99.90
39849;DHT22;25518;47.878;15.914;2023-06-10T16:59:54;20.80;99.90
39849;DHT22;25518;47.878;15.914;2023-06-10T17:02:44;21.20;99.90
39849;DHT22;25518;47.878;15.914;2023-06-10T17:05:34;21.10;99.90
39849;DHT22;25518;47.878;15.914;2023-06-10T17:08:23;19.60;99.90
39849;DHT22;25518;47.878;15.914;2023-06-10T17:11:14;20.60;99.90
39849;DHT22;25518;47.878;15.914;2023-06-10T17:14:03;20.40;99.90
39849;DHT22;25518;47.878;15.914;2023-06-10T17:16:53;19.80;99.90
39849;DHT22;25518;47.878;15.914;2023-06-10T17:19:43;19.60;99.90
39849;DHT22;25518;47.878;15.914;2023-06-10T17:22:32;19.60;99.90
39849;DHT22;25518;47.878;15.914;2023-06-10T17:25:22;19.30;99.90
39849;DHT22;25518;47.878;15.914;2023-06-10T17:28:12;18.80;99.90
39849;DHT22;25518;47.878;15.914;2023-06-10T17:31:02;18.30;99.90
39849;DHT22;25518;47.878;15.914;2023-06-10T17:33:52;17.90;99.90
39849;DHT22;25518;47.878;15.914;2023-06-10T17:36:41;17.40;99.90
39849;DHT22;25518;47.878;15.914;2023-06-10T17:39:30;17.30;99.90
39849;DHT22;25518;47.878;15.914;2023-06-10T17:42:20;17.20;99.90
39849;DHT22;25518;47.878;15.914;2023-06-10T17:45:10;17.10;99.90
39849;DHT22;25518;47.878;15.914;2023-06-10T17:47:59;17.10;99.90
39849;DHT22;25518;47.878;15.914;2023-06-10T17:50:49;16.90;99.90
39849;DHT22;25518;47.878;15.914;2023-06-10T17:53:39;16.90;99.90
39849;DHT22;25518;47.878;15.914;2023-06-10T17:56:29;16.80;99.90
39849;DHT22;25518;47.878;15.914;2023-06-10T17:59:18;16.70;99.90
39849;DHT22;25518;47.878;15.914;2023-06-10T18:02:09;16.20;99.90
39849;DHT22;25518;47.878;15.914;2023-06-10T18:04:58;16.70;99.90
39849;DHT22;25518;47.878;15.914;2023-06-10T18:07:50;15.90;99.90